Time;durP1;ratioP1;P1;durP2;ratioP2;P2;SDS_P1;SDS_P2;PMS_P1;PMS_P2;Temp;Humidity;BMP_temperature;BMP_pressure;BME280_temperature;BME280_humidity;BME280_pressure;Samples;Min_cycle;Max_cycle;Signal;HPM_P1;HPM_P2
2022/09/13 00:02:51;;;;;;;5.53;1.92;;;;;18.40;100562.00;;;;13107855;22;20501;-73
2022/09/13 00:07:54;;;;;;;5.47;1.75;;;;;18.40;100559.00;;;;13153946;22;20188;-73
2022/09/13 00:12:55;;;;;;;3.03;2.30;;;;;18.40;100555.00;;;;13130297;22;20584;-73
2022/09/13 00:17:56;;;;;;;3.90;2.25;;;;;18.40;100542.00;;;;13107114;22;20206;-73
2022/09/13 00:22:57;;;;;;;5.47;1.98;;;;;18.40;100533.00;;;;13182451;22;20586;-73
2022/09/13 00:27:58;;;;;;;6.18;2.28;;;;;18.50;100521.00;;;;13079896;22;20715;-73
2022/09/13 00:33:03;;;;;;;4.70;2.30;;;;;18.50;100516.00;;;;13128163;22;20158;-73
2022/09/13 00:38:04;;;;;;;3.95;2.20;;;;;18.60;100507.00;;;;13153140;22;20190;-73
2022/09/13 00:43:15;;;;;;;4.25;2.25;;;;;18.60;100488.00;;;;13129020;22;20158;-73
2022/09/13 00:48:21;;;;;;;2.53;1.95;;;;;18.60;100492.00;;;;13106448;22;20174;-73
2022/09/13 00:53:29;;;;;;;6.82;2.28;;;;;18.60;100479.00;;;;13129679;22;20163;-73
2022/09/13 00:58:35;;;;;;;2.58;1.75;;;;;18.70;100472.00;;;;13128854;22;20188;-73
2022/09/13 01:03:38;;;;;;;4.80;1.98;;;;;18.60;100472.00;;;;13128146;22;20167;-72
2022/09/13 01:08:42;;;;;;;3.95;2.10;;;;;18.60;100469.00;;;;13107823;22;20170;-73
2022/09/13 01:13:44;;;;;;;2.78;2.03;;;;;18.60;100460.00;;;;13080358;22;20281;-73
2022/09/13 01:18:45;;;;;;;3.55;2.08;;;;;18.60;100441.00;;;;13080949;22;20278;-73
2022/09/13 01:24:20;;;;;;;3.63;2.10;;;;;18.60;100443.00;;;;13080460;22;20177;-73
2022/09/13 01:29:53;;;;;;;3.63;2.10;;;;;18.50;100434.00;;;;13132270;22;20175;-73
2022/09/13 01:35:03;;;;;;;4.07;1.88;;;;;18.50;100436.00;;;;13153579;22;20163;-73
2022/09/13 01:40:31;;;;;;;2.47;2.28;;;;;18.40;100431.00;;;;13081275;22;20229;-73
2022/09/13 01:45:39;;;;;;;2.58;2.15;;;;;18.30;100440.00;;;;13150906;22;20888;-73
2022/09/13 01:50:46;;;;;;;2.70;2.38;;;;;18.30;100450.00;;;;13079683;22;20167;-73
2022/09/13 01:55:58;;;;;;;6.63;2.50;;;;;18.20;100447.00;;;;13152416;22;20166;-73
2022/09/13 02:01:16;;;;;;;3.20;2.53;;;;;18.20;100444.00;;;;13130553;22;20609;-73
2022/09/13 02:06:22;;;;;;;2.72;2.00;;;;;18.10;100445.00;;;;13131636;22;20174;-73
2022/09/13 02:11:24;;;;;;;3.55;2.70;;;;;18.00;100460.00;;;;13150604;22;20159;-73
2022/09/13 02:16:40;;;;;;;2.75;2.22;;;;;18.00;100465.00;;;;13104981;22;20194;-73
2022/09/13 02:21:45;;;;;;;4.57;2.25;;;;;17.90;100473.00;;;;13130327;22;20228;-73
2022/09/13 02:26:51;;;;;;;3.08;2.13;;;;;17.90;100481.00;;;;13125724;22;20159;-73
2022/09/13 02:32:04;;;;;;;7.53;2.33;;;;;17.80;100472.00;;;;13104880;22;20170;-73
2022/09/13 02:37:07;;;;;;;2.28;2.08;;;;;17.70;100480.00;;;;13102552;22;20203;-73
2022/09/13 02:42:20;;;;;;;2.70;2.50;;;;;17.80;100478.00;;;;13078167;22;20213;-73
2022/09/13 02:47:48;;;;;;;4.07;2.10;;;;;17.80;100489.00;;;;13151548;22;20182;-73
2022/09/13 02:52:53;;;;;;;3.15;2.13;;;;;17.70;100496.00;;;;13104173;22;20216;-73
2022/09/13 02:58:19;;;;;;;3.13;2.20;;;;;17.70;100498.00;;;;13079673;22;20198;-73
2022/09/13 03:03:27;;;;;;;4.60;2.10;;;;;17.70;100498.00;;;;13129111;22;20163;-73
2022/09/13 03:08:29;;;;;;;3.08;2.28;;;;;17.70;100503.00;;;;13182789;22;20178;-73
2022/09/13 03:13:56;;;;;;;3.20;2.05;;;;;17.80;100504.00;;;;13082626;22;20187;-73
2022/09/13 03:18:57;;;;;;;6.90;3.28;;;;;17.80;100497.00;;;;13128429;22;20865;-73
2022/09/13 03:24:11;;;;;;;5.70;2.97;;;;;17.90;100490.00;;;;13105884;22;20296;-73
2022/09/13 03:29:39;;;;;;;6.00;2.80;;;;;17.90;100478.00;;;;13154404;22;20353;-73
2022/09/13 03:35:04;;;;;;;4.18;2.45;;;;;18.00;100479.00;;;;13048947;22;20174;-73
2022/09/13 03:40:13;;;;;;;3.42;2.53;;;;;18.00;100482.00;;;;13081076;22;20222;-73
2022/09/13 03:45:17;;;;;;;4.32;2.40;;;;;18.00;100476.00;;;;13153292;22;20601;-73
2022/09/13 03:50:22;;;;;;;2.33;2.13;;;;;18.00;100479.00;;;;13080964;22;20171;-73
2022/09/13 03:55:24;;;;;;;5.90;2.47;;;;;17.90;100481.00;;;;13081763;22;20177;-73
2022/09/13 04:00:26;;;;;;;3.10;2.50;;;;;17.90;100472.00;;;;13129268;22;20190;-73
2022/09/13 04:05:27;;;;;;;5.43;3.08;;;;;17.90;100467.00;;;;13131595;22;20178;-73
2022/09/13 04:10:30;;;;;;;5.20;2.80;;;;;17.80;100457.00;;;;13103273;22;20464;-73
2022/09/13 04:15:31;;;;;;;3.33;2.30;;;;;17.70;100461.00;;;;13103155;22;20189;-73
2022/09/13 04:20:34;;;;;;;3.53;2.47;;;;;17.70;100460.00;;;;13155711;22;20183;-73
2022/09/13 04:25:38;;;;;;;2.80;2.40;;;;;17.60;100455.00;;;;13128964;22;20163;-73
2022/09/13 04:30:46;;;;;;;5.95;2.63;;;;;17.60;100460.00;;;;13107042;22;20179;-73
2022/09/13 04:35:53;;;;;;;3.15;2.50;;;;;17.60;100451.00;;;;13106125;22;20171;-73
2022/09/13 04:40:55;;;;;;;5.75;2.28;;;;;17.60;100457.00;;;;13107506;22;20175;-73
2022/09/13 04:46:00;;;;;;;5.20;2.70;;;;;17.60;100458.00;;;;13132336;22;20174;-73
2022/09/13 04:51:03;;;;;;;3.28;2.58;;;;;17.50;100455.00;;;;13107005;22;20170;-73
2022/09/13 04:56:05;;;;;;;2.60;2.40;;;;;17.50;100456.00;;;;13155525;22;20186;-73
2022/09/13 05:01:09;;;;;;;3.28;2.50;;;;;17.50;100461.00;;;;13128271;22;20159;-73
2022/09/13 05:06:18;;;;;;;5.65;2.55;;;;;17.40;100471.00;;;;13106541;22;20243;-73
2022/09/13 05:11:21;;;;;;;3.80;2.80;;;;;17.50;100472.00;;;;13107127;22;20254;-73
2022/09/13 05:16:24;;;;;;;7.50;3.08;;;;;17.50;100479.00;;;;13156155;22;20660;-73
2022/09/13 05:21:29;;;;;;;5.28;2.80;;;;;17.50;100476.00;;;;13154514;22;20159;-73
2022/09/13 05:26:31;;;;;;;4.82;3.30;;;;;17.50;100492.00;;;;13155310;22;20163;-73
2022/09/13 05:31:35;;;;;;;4.80;3.00;;;;;17.60;100490.00;;;;13126168;22;20174;-73
2022/09/13 05:36:37;;;;;;;6.78;3.30;;;;;17.70;100502.00;;;;13182221;22;20186;-73
2022/09/13 05:41:38;;;;;;;4.38;2.92;;;;;17.80;100494.00;;;;13153904;22;20704;-73
2022/09/13 05:46:39;;;;;;;6.88;3.20;;;;;17.90;100493.00;;;;13078516;22;20162;-73
2022/09/13 05:51:41;;;;;;;5.30;2.60;;;;;18.00;100501.00;;;;13131554;22;20490;-73
2022/09/13 05:56:42;;;;;;;5.85;2.83;;;;;18.00;100502.00;;;;13103485;22;20194;-73
2022/09/13 06:01:44;;;;;;;5.47;3.10;;;;;18.10;100491.00;;;;13127862;22;20154;-73
2022/09/13 06:06:45;;;;;;;4.43;3.00;;;;;18.00;100495.00;;;;13149982;22;20158;-73
2022/09/13 06:11:46;;;;;;;5.63;3.35;;;;;18.00;100501.00;;;;13105876;22;20173;-73
2022/09/13 06:16:47;;;;;;;5.63;3.55;;;;;18.00;100505.00;;;;13153926;22;20174;-73
2022/09/13 06:21:48;;;;;;;4.30;3.50;;;;;18.00;100502.00;;;;13105103;22;20167;-73
2022/09/13 06:26:49;;;;;;;4.57;3.45;;;;;18.10;100500.00;;;;13151842;22;20259;-73
2022/09/13 06:31:50;;;;;;;7.22;3.35;;;;;18.20;100494.00;;;;13108840;22;20789;-73
2022/09/13 06:36:51;;;;;;;8.30;3.95;;;;;18.30;100493.00;;;;13129563;22;20182;-73
2022/09/13 06:41:53;;;;;;;7.25;3.78;;;;;18.50;100501.00;;;;13130750;22;20170;-73
2022/09/13 06:47:01;;;;;;;7.07;3.80;;;;;18.80;100493.00;;;;13131163;22;20582;-73
2022/09/13 06:52:02;;;;;;;7.07;3.58;;;;;19.10;100499.00;;;;13153106;22;20169;-73
2022/09/13 06:57:03;;;;;;;6.65;3.88;;;;;19.50;100494.00;;;;13128479;22;20870;-73
2022/09/13 07:02:05;;;;;;;8.68;3.95;;;;;19.90;100491.00;;;;13129214;22;20163;-73
2022/09/13 07:07:06;;;;;;;7.55;3.75;;;;;20.30;100482.00;;;;13129121;22;20699;-73
2022/09/13 07:12:07;;;;;;;9.00;4.28;;;;;20.70;100473.00;;;;13106341;22;20725;-73
2022/09/13 07:17:08;;;;;;;8.80;4.03;;;;;21.20;100480.00;;;;13155676;22;20190;-73
2022/09/13 07:22:09;;;;;;;6.93;3.50;;;;;21.70;100487.00;;;;13152700;22;20166;-73
2022/09/13 07:27:11;;;;;;;9.18;3.08;;;;;22.10;100494.00;;;;13155453;22;20185;-73
2022/09/13 07:32:13;;;;;;;9.85;3.17;;;;;22.40;100505.00;;;;13102289;22;20200;-73
2022/09/13 07:37:14;;;;;;;12.38;3.58;;;;;22.50;100506.00;;;;13153865;22;20231;-73
2022/09/13 07:42:15;;;;;;;9.30;3.42;;;;;22.50;100496.00;;;;13079975;22;20171;-73
2022/09/13 07:47:17;;;;;;;11.18;4.18;;;;;22.80;100492.00;;;;13079930;22;20671;-73
2022/09/13 07:52:18;;;;;;;12.48;3.95;;;;;23.00;100508.00;;;;13153897;22;20190;-73
2022/09/13 07:57:19;;;;;;;9.50;3.40;;;;;23.00;100513.00;;;;13106573;22;20522;-73
2022/09/13 08:02:20;;;;;;;11.85;3.50;;;;;23.10;100515.00;;;;13127572;22;20201;-74
2022/09/13 08:07:21;;;;;;;9.35;4.65;;;;;23.80;100524.00;;;;13153531;22;20178;-74
2022/09/13 08:12:23;;;;;;;9.77;4.53;;;;;23.90;100518.00;;;;13106501;22;20187;-74
2022/09/13 08:17:24;;;;;;;7.25;4.13;;;;;24.00;100518.00;;;;13104411;22;20195;-74
2022/09/13 08:22:25;;;;;;;8.18;4.47;;;;;24.00;100524.00;;;;13153340;22;20785;-74
2022/09/13 08:27:27;;;;;;;9.13;4.45;;;;;23.80;100517.00;;;;13080293;22;20176;-74
2022/09/13 08:32:28;;;;;;;14.23;4.13;;;;;23.90;100521.00;;;;13105948;22;20198;-73
2022/09/13 08:37:33;;;;;;;10.30;4.93;;;;;24.20;100525.00;;;;13127701;22;20290;-74
2022/09/13 08:42:58;;;;;;;10.05;4.88;;;;;24.20;100531.00;;;;13125288;22;20238;-74
2022/09/13 08:48:10;;;;;;;6.93;4.70;;;;;24.30;100523.00;;;;13132117;22;20187;-73
2022/09/13 08:53:25;;;;;;;10.98;4.80;;;;;24.40;100513.00;;;;13128202;22;20768;-74
2022/09/13 08:58:54;;;;;;;15.82;5.05;;;;;24.70;100511.00;;;;13153073;22;20186;-74
2022/09/13 09:04:28;;;;;;;11.38;5.60;;;;;25.20;100509.00;;;;13152024;22;20163;-74
2022/09/13 09:09:39;;;;;;;9.85;5.30;;;;;26.00;100507.00;;;;13152875;22;20159;-74
2022/09/13 09:14:45;;;;;;;12.57;5.10;;;;;26.40;100498.00;;;;13105928;22;20263;-74
2022/09/13 09:19:59;;;;;;;11.02;6.78;;;;;26.50;100486.00;;;;13127115;22;20179;-74
2022/09/13 09:25:00;;;;;;;9.07;5.80;;;;;26.80;100467.00;;;;13151172;22;20250;-74
2022/09/13 09:30:03;;;;;;;7.72;4.70;;;;;27.00;100462.00;;;;13130485;22;20182;-74
2022/09/13 09:35:35;;;;;;;6.00;5.15;;;;;27.20;100469.00;;;;13125980;22;20166;-74
2022/09/13 09:40:37;;;;;;;8.80;5.97;;;;;27.10;100465.00;;;;13152305;22;20183;-74
2022/09/13 09:45:40;;;;;;;8.25;4.63;;;;;26.90;100450.00;;;;13104350;22;20171;-74
2022/09/13 09:50:48;;;;;;;6.20;4.80;;;;;27.30;100460.00;;;;13150928;22;20171;-74
2022/09/13 09:55:59;;;;;;;13.43;6.00;;;;;26.80;100460.00;;;;13127038;22;20171;-74
2022/09/13 10:01:00;;;;;;;7.90;4.75;;;;;26.60;100447.00;;;;13103841;22;20175;-74
2022/09/13 10:06:08;;;;;;;8.27;5.35;;;;;26.80;100445.00;;;;13106913;22;20605;-74
2022/09/13 10:11:09;;;;;;;7.30;5.30;;;;;26.80;100435.00;;;;13154668;22;20167;-74
2022/09/13 10:16:29;;;;;;;9.95;5.95;;;;;27.60;100430.00;;;;13182296;22;20258;-74
2022/09/13 10:21:30;;;;;;;9.88;6.50;;;;;27.90;100419.00;;;;13154608;22;20242;-74
2022/09/13 10:26:32;;;;;;;13.65;7.60;;;;;27.90;100419.00;;;;13128152;22;20182;-74
2022/09/13 10:31:37;;;;;;;10.82;6.90;;;;;27.60;100428.00;;;;13128533;22;20246;-74
2022/09/13 10:36:54;;;;;;;12.27;6.60;;;;;27.20;100430.00;;;;13132978;22;20221;-74
2022/09/13 10:42:01;;;;;;;9.57;6.18;;;;;27.00;100439.00;;;;13154093;22;20166;-74
2022/09/13 10:47:12;;;;;;;11.48;6.10;;;;;27.20;100423.00;;;;13154846;22;20250;-74
2022/09/13 10:52:34;;;;;;;7.38;5.53;;;;;27.40;100451.00;;;;13128630;22;20220;-74
2022/09/13 10:57:36;;;;;;;7.30;6.05;;;;;27.50;100455.00;;;;13106107;22;20194;-74
2022/09/13 11:02:43;;;;;;;7.38;5.28;;;;;29.20;100429.00;;;;13153183;22;20167;-74
2022/09/13 11:07:48;;;;;;;10.50;5.72;;;;;30.00;100434.00;;;;13130830;22;20197;-74
2022/09/13 11:12:59;;;;;;;11.65;5.57;;;;;29.40;100436.00;;;;13106381;22;20206;-75
2022/09/13 11:18:26;;;;;;;5.95;4.88;;;;;29.50;100438.00;;;;13153673;22;20896;-74
2022/09/13 11:23:40;;;;;;;7.00;4.40;;;;;29.40;100428.00;;;;13106650;22;20182;-74
2022/09/13 11:29:01;;;;;;;7.25;3.95;;;;;30.00;100433.00;;;;13100173;22;20234;-74
2022/09/13 11:34:35;;;;;;;4.22;3.83;;;;;29.90;100425.00;;;;13128577;22;20165;-74
2022/09/13 11:39:51;;;;;;;8.00;4.88;;;;;29.20;100433.00;;;;13106150;22;20191;-74
2022/09/13 11:45:08;;;;;;;9.65;3.45;;;;;28.70;100425.00;;;;13105673;22;20166;-74
2022/09/13 11:50:13;;;;;;;6.63;3.30;;;;;28.50;100429.00;;;;13103877;22;20173;-74
2022/09/13 11:55:30;;;;;;;5.93;3.78;;;;;28.30;100438.00;;;;13106165;22;20167;-74
2022/09/13 12:00:45;;;;;;;8.32;3.65;;;;;27.90;100440.00;;;;13105415;22;20201;-74
2022/09/13 12:05:52;;;;;;;4.82;2.65;;;;;28.10;100438.00;;;;13078881;22;20174;-74
2022/09/13 12:10:56;;;;;;;4.82;2.15;;;;;28.20;100423.00;;;;13105597;22;20174;-74
2022/09/13 12:16:07;;;;;;;5.32;2.97;;;;;27.80;100423.00;;;;13079490;22;20278;-74
2022/09/13 12:21:18;;;;;;;4.93;3.45;;;;;27.40;100413.00;;;;13105372;22;20640;-74
2022/09/13 12:26:34;;;;;;;5.93;2.97;;;;;27.20;100408.00;;;;13154403;22;20167;-74
2022/09/13 12:31:35;;;;;;;6.07;3.38;;;;;27.00;100412.00;;;;13105579;22;20167;-74
2022/09/13 12:36:57;;;;;;;4.70;2.90;;;;;26.80;100418.00;;;;13129559;22;20190;-74
2022/09/13 12:42:20;;;;;;;8.32;3.90;;;;;26.70;100416.00;;;;13106233;22;20483;-74
2022/09/13 12:48:05;;;;;;;4.50;3.40;;;;;26.70;100412.00;;;;13180819;22;20658;-74
2022/09/13 12:53:45;;;;;;;4.70;3.75;;;;;26.50;100411.00;;;;13151199;22;20742;-74
2022/09/13 12:59:02;;;;;;;6.50;4.00;;;;;26.30;100413.00;;;;13126587;22;20514;-74
2022/09/13 13:04:27;;;;;;;6.30;3.63;;;;;26.10;100408.00;;;;13152943;22;20167;-74
2022/09/13 13:09:33;;;;;;;7.38;4.45;;;;;26.00;100409.00;;;;13104632;22;20656;-74
2022/09/13 13:14:37;;;;;;;5.78;4.40;;;;;25.90;100396.00;;;;13104314;22;20183;-73
2022/09/13 13:19:38;;;;;;;7.25;4.13;;;;;25.70;100408.00;;;;13132000;22;20187;-73
2022/09/13 13:24:45;;;;;;;6.60;4.18;;;;;25.40;100414.00;;;;13075153;22;20780;-73
2022/09/13 13:30:25;;;;;;;6.63;3.78;;;;;25.20;100410.00;;;;13130035;22;20313;-73
2022/09/13 13:35:31;;;;;;;6.50;4.38;;;;;25.00;100408.00;;;;13151688;22;20227;-74
2022/09/13 13:40:32;;;;;;;7.75;4.65;;;;;24.90;100411.00;;;;13125287;22;20186;-74
2022/09/13 13:45:33;;;;;;;8.57;4.82;;;;;25.00;100418.00;;;;13078238;22;20553;-73
2022/09/13 13:50:55;;;;;;;9.45;4.22;;;;;25.00;100435.00;;;;13151499;22;20305;-73
2022/09/13 13:56:20;;;;;;;10.60;4.70;;;;;24.70;100432.00;;;;13129905;22;20613;-74
2022/09/13 14:01:27;;;;;;;8.52;4.18;;;;;24.60;100437.00;;;;13125048;22;20169;-74
2022/09/13 14:06:53;;;;;;;7.18;4.20;;;;;24.70;100442.00;;;;13103582;22;20170;-73
2022/09/13 14:12:04;;;;;;;5.95;4.15;;;;;24.60;100452.00;;;;13151061;22;20163;-73
2022/09/13 14:17:42;;;;;;;8.15;5.28;;;;;24.20;100465.00;;;;13126043;22;20267;-73
2022/09/13 14:22:43;;;;;;;5.80;4.68;;;;;23.70;100460.00;;;;13101861;22;20186;-73
2022/09/13 14:27:47;;;;;;;9.57;4.63;;;;;23.40;100468.00;;;;13077872;22;20231;-73
2022/09/13 14:32:51;;;;;;;6.57;4.03;;;;;23.20;100477.00;;;;13077450;22;20167;-73
2022/09/13 14:37:54;;;;;;;5.07;3.40;;;;;23.20;100475.00;;;;13129118;22;20198;-73
2022/09/13 14:42:56;;;;;;;6.72;3.22;;;;;23.20;100473.00;;;;13150131;22;20171;-73
2022/09/13 14:48:21;;;;;;;7.03;3.40;;;;;23.00;100471.00;;;;13104216;22;20181;-73
2022/09/13 14:53:30;;;;;;;7.18;3.90;;;;;22.70;100467.00;;;;13107757;22;20171;-73
2022/09/13 14:58:47;;;;;;;7.85;3.88;;;;;22.20;100460.00;;;;13128674;22;20183;-74
2022/09/13 15:03:50;;;;;;;8.10;5.20;;;;;21.80;100437.00;;;;13154640;22;20158;-73
2022/09/13 15:08:59;;;;;;;9.60;6.35;;;;;21.60;100427.00;;;;13154429;22;20409;-73
2022/09/13 15:14:25;;;;;;;9.52;7.18;;;;;21.60;100449.00;;;;13124216;22;20565;-73
2022/09/13 15:19:30;;;;;;;12.38;7.70;;;;;21.60;100444.00;;;;13093936;22;20773;-74
2022/09/13 15:24:33;;;;;;;8.50;7.60;;;;;21.70;100445.00;;;;13128219;22;20645;-74
2022/09/13 15:29:36;;;;;;;10.68;8.15;;;;;21.80;100443.00;;;;13154020;22;20767;-74
2022/09/13 15:34:45;;;;;;;12.45;8.88;;;;;21.80;100426.00;;;;13151039;22;20216;-73
2022/09/13 15:39:50;;;;;;;10.90;9.40;;;;;21.80;100429.00;;;;13076974;22;20651;-74
2022/09/13 15:44:51;;;;;;;20.10;9.50;;;;;21.80;100431.00;;;;13081125;22;20174;-74
2022/09/13 15:49:52;;;;;;;12.27;9.25;;;;;21.70;100436.00;;;;13104326;22;20171;-74
2022/09/13 15:54:54;;;;;;;14.93;10.05;;;;;21.60;100425.00;;;;13154133;22;20212;-74
2022/09/13 15:59:57;;;;;;;11.10;9.95;;;;;21.70;100424.00;;;;13105129;22;20197;-74
2022/09/13 16:05:11;;;;;;;13.05;9.90;;;;;21.50;100415.00;;;;13106371;22;20182;-74
2022/09/13 16:10:19;;;;;;;11.13;9.23;;;;;21.40;100408.00;;;;13127670;22;20304;-74
2022/09/13 16:15:20;;;;;;;14.35;10.20;;;;;21.30;100395.00;;;;13131199;22;20187;-74
2022/09/13 16:20:21;;;;;;;14.48;10.20;;;;;21.30;100401.00;;;;13154901;22;20678;-74
2022/09/13 16:25:22;;;;;;;13.60;9.70;;;;;21.20;100393.00;;;;13105419;22;20197;-74
2022/09/13 16:30:26;;;;;;;12.63;9.85;;;;;21.20;100394.00;;;;13080752;22;20178;-74
2022/09/13 16:35:31;;;;;;;12.32;9.52;;;;;21.20;100399.00;;;;13080769;22;20687;-74
2022/09/13 16:40:33;;;;;;;11.00;8.73;;;;;21.00;100410.00;;;;13179388;22;20261;-74
2022/09/13 16:45:38;;;;;;;11.07;9.82;;;;;20.90;100404.00;;;;13054859;22;20171;-74
2022/09/13 16:50:39;;;;;;;12.75;8.70;;;;;20.70;100410.00;;;;13106301;22;20173;-74
2022/09/13 16:55:41;;;;;;;10.15;8.95;;;;;20.60;100398.00;;;;13153022;22;20159;-74
2022/09/13 17:00:43;;;;;;;12.73;10.30;;;;;20.50;100410.00;;;;13180998;22;20193;-74
2022/09/13 17:05:56;;;;;;;15.77;11.05;;;;;20.30;100403.00;;;;13106591;22;20645;-74
2022/09/13 17:10:57;;;;;;;18.35;11.63;;;;;20.20;100397.00;;;;13105292;22;20506;-74
2022/09/13 17:15:58;;;;;;;13.93;10.68;;;;;20.00;100394.00;;;;13105049;22;20190;-73
2022/09/13 17:20:59;;;;;;;15.15;12.13;;;;;19.90;100391.00;;;;13126853;22;20190;-73
2022/09/13 17:26:00;;;;;;;13.68;12.30;;;;;19.90;100380.00;;;;13154193;22;20155;-73
2022/09/13 17:31:02;;;;;;;15.02;12.10;;;;;19.80;100372.00;;;;13079565;22;20615;-74
2022/09/13 17:36:07;;;;;;;14.60;13.07;;;;;19.70;100377.00;;;;13125891;22;20217;-73
2022/09/13 17:41:11;;;;;;;12.68;10.98;;;;;19.70;100356.00;;;;13104349;22;20786;-73
2022/09/13 17:46:20;;;;;;;14.80;10.85;;;;;19.60;100352.00;;;;13127280;22;20162;-73
2022/09/13 17:51:24;;;;;;;14.02;11.20;;;;;19.50;100353.00;;;;13054154;22;20171;-73
2022/09/13 17:56:45;;;;;;;14.45;12.52;;;;;19.40;100353.00;;;;13152884;22;20586;-73
2022/09/13 18:01:51;;;;;;;16.48;12.48;;;;;19.40;100348.00;;;;13103927;22;20171;-73
2022/09/13 18:06:54;;;;;;;16.85;12.63;;;;;19.30;100345.00;;;;13152649;22;20777;-73
2022/09/13 18:11:55;;;;;;;13.00;11.13;;;;;19.30;100343.00;;;;13125916;22;20163;-73
2022/09/13 18:16:57;;;;;;;17.20;13.05;;;;;19.20;100334.00;;;;13079944;22;20187;-73
2022/09/13 18:22:00;;;;;;;15.73;13.65;;;;;19.20;100326.00;;;;13131059;22;20297;-73
2022/09/13 18:27:02;;;;;;;15.75;13.05;;;;;19.20;100324.00;;;;13181066;22;20167;-73
2022/09/13 18:32:03;;;;;;;18.85;14.27;;;;;19.20;100325.00;;;;13129185;22;20200;-73
2022/09/13 18:37:04;;;;;;;16.92;13.63;;;;;19.20;100334.00;;;;13103355;22;20190;-73
2022/09/13 18:42:06;;;;;;;15.60;13.45;;;;;19.10;100336.00;;;;13081447;22;20179;-73
2022/09/13 18:47:11;;;;;;;15.00;11.98;;;;;19.20;100355.00;;;;13154712;22;20237;-73
2022/09/13 18:52:13;;;;;;;12.82;10.48;;;;;19.10;100359.00;;;;13154873;22;20163;-73
2022/09/13 18:57:14;;;;;;;13.32;10.38;;;;;19.10;100358.00;;;;13127757;22;20189;-73
2022/09/13 19:02:15;;;;;;;13.80;10.52;;;;;19.10;100365.00;;;;13128923;22;20182;-73
2022/09/13 19:07:16;;;;;;;17.73;10.57;;;;;19.10;100372.00;;;;13107991;22;20174;-74
2022/09/13 19:12:17;;;;;;;12.35;10.13;;;;;19.00;100377.00;;;;13129541;22;20654;-74
2022/09/13 19:17:19;;;;;;;14.20;11.07;;;;;19.00;100369.00;;;;13184432;22;20368;-74
2022/09/13 19:22:20;;;;;;;14.40;10.65;;;;;18.90;100362.00;;;;13127027;22;20212;-73
2022/09/13 19:27:21;;;;;;;13.23;10.45;;;;;18.80;100358.00;;;;13128690;22;20473;-73
2022/09/13 19:32:22;;;;;;;12.27;10.30;;;;;18.80;100357.00;;;;13103357;22;20189;-73
2022/09/13 19:37:24;;;;;;;15.98;10.90;;;;;18.80;100362.00;;;;13154287;22;20190;-73
2022/09/13 19:42:25;;;;;;;14.35;10.52;;;;;18.70;100357.00;;;;13127764;22;20755;-73
2022/09/13 19:47:27;;;;;;;17.27;11.50;;;;;18.70;100354.00;;;;13129297;22;20159;-73
2022/09/13 19:52:48;;;;;;;16.35;11.75;;;;;18.70;100350.00;;;;13106199;22;20177;-73
2022/09/13 19:57:50;;;;;;;19.40;11.82;;;;;18.70;100353.00;;;;13132027;22;20645;-73
2022/09/13 20:02:51;;;;;;;15.75;13.05;;;;;18.70;100349.00;;;;13106384;22;20764;-73
2022/09/13 20:07:52;;;;;;;16.88;13.05;;;;;18.70;100349.00;;;;13107227;22;20178;-73
2022/09/13 20:12:54;;;;;;;17.25;13.23;;;;;18.60;100362.00;;;;13105474;22;20239;-73
2022/09/13 20:17:55;;;;;;;16.92;11.98;;;;;18.60;100362.00;;;;13153491;22;20797;-74
2022/09/13 20:22:56;;;;;;;18.42;12.80;;;;;18.50;100357.00;;;;13153992;22;20171;-74
2022/09/13 20:27:58;;;;;;;18.17;13.48;;;;;18.50;100360.00;;;;13128330;22;20587;-73
2022/09/13 20:32:59;;;;;;;16.27;13.02;;;;;18.50;100357.00;;;;13154641;22;20172;-73
2022/09/13 20:38:00;;;;;;;16.80;12.77;;;;;18.50;100352.00;;;;13131937;22;20191;-73
2022/09/13 20:43:01;;;;;;;21.67;14.18;;;;;18.50;100343.00;;;;13145615;22;20163;-73
2022/09/13 20:48:03;;;;;;;19.10;15.45;;;;;18.50;100326.00;;;;13178132;22;20159;-73
2022/09/13 20:53:04;;;;;;;19.15;15.65;;;;;18.40;100305.00;;;;13079201;22;20166;-73
2022/09/13 20:58:05;;;;;;;24.70;18.83;;;;;18.40;100305.00;;;;13103587;22;20582;-73
2022/09/13 21:03:07;;;;;;;25.40;19.70;;;;;18.40;100309.00;;;;13152098;22;20669;-73
2022/09/13 21:13:41;;;;;;;31.58;23.60;;;;;18.40;100311.00;;;;13153595;22;20251;-73
2022/09/13 21:18:43;;;;;;;23.48;19.42;;;;;18.50;100313.00;;;;13125603;22;20277;-73
2022/09/13 21:23:45;;;;;;;25.88;18.98;;;;;18.50;100318.00;;;;13124300;22;20464;-73
2022/09/13 21:28:46;;;;;;;17.75;13.43;;;;;18.40;100319.00;;;;13152233;22;20770;-73
2022/09/13 21:33:55;;;;;;;14.07;11.20;;;;;18.30;100326.00;;;;13129985;22;20171;-73
2022/09/13 21:38:56;;;;;;;14.48;11.43;;;;;18.20;100316.00;;;;13103520;22;20194;-73
2022/09/13 21:43:58;;;;;;;15.52;10.52;;;;;18.10;100314.00;;;;13151270;22;20721;-73
2022/09/13 21:49:02;;;;;;;16.02;10.98;;;;;18.10;100307.00;;;;13103345;22;20312;-73
2022/09/13 21:54:06;;;;;;;11.95;9.50;;;;;18.00;100310.00;;;;13125634;22;20681;-73
2022/09/13 21:59:13;;;;;;;13.85;10.05;;;;;18.00;100308.00;;;;13078875;22;20285;-73
2022/09/13 22:04:26;;;;;;;11.65;10.00;;;;;18.00;100306.00;;;;13127522;22;20965;-74
2022/09/13 22:09:27;;;;;;;15.40;10.13;;;;;17.90;100307.00;;;;13131939;22;20502;-74
2022/09/13 22:14:28;;;;;;;10.77;9.63;;;;;17.90;100305.00;;;;13127237;22;20360;-73
2022/09/13 22:19:30;;;;;;;14.13;10.25;;;;;18.00;100305.00;;;;13155855;22;20217;-73
2022/09/13 22:24:34;;;;;;;12.75;9.65;;;;;18.00;100291.00;;;;13081356;22;20220;-73
2022/09/13 22:29:35;;;;;;;11.85;9.55;;;;;17.90;100297.00;;;;13082715;22;20482;-73
2022/09/13 22:34:37;;;;;;;14.65;9.15;;;;;17.90;100291.00;;;;13155302;22;20163;-73
2022/09/13 22:39:38;;;;;;;12.68;8.32;;;;;17.80;100285.00;;;;13106269;22;20193;-73
2022/09/13 22:44:39;;;;;;;12.07;8.70;;;;;17.70;100287.00;;;;13079498;22;20187;-73
2022/09/13 22:49:40;;;;;;;15.60;9.82;;;;;17.70;100274.00;;;;13081728;22;20166;-73
2022/09/13 22:54:41;;;;;;;15.18;9.75;;;;;17.60;100280.00;;;;13129167;22;20212;-73
2022/09/13 22:59:42;;;;;;;13.05;8.57;;;;;17.50;100273.00;;;;13106216;22;20218;-73
2022/09/13 23:04:44;;;;;;;13.75;8.82;;;;;17.50;100281.00;;;;13080660;22;20257;-73
2022/09/13 23:09:45;;;;;;;13.00;8.50;;;;;17.40;100273.00;;;;13130930;22;20171;-73
2022/09/13 23:14:46;;;;;;;14.45;9.75;;;;;17.40;100264.00;;;;13106967;22;20669;-73
2022/09/13 23:19:47;;;;;;;12.93;8.88;;;;;17.30;100265.00;;;;13106293;22;20582;-73
2022/09/13 23:24:48;;;;;;;12.23;8.82;;;;;17.30;100260.00;;;;13107319;22;20167;-73
2022/09/13 23:29:49;;;;;;;18.83;9.27;;;;;17.30;100250.00;;;;13107630;22;20171;-73
2022/09/13 23:34:50;;;;;;;15.65;8.60;;;;;17.20;100252.00;;;;13107641;22;20178;-73
2022/09/13 23:39:52;;;;;;;15.57;9.55;;;;;17.10;100265.00;;;;13154786;22;20213;-73
2022/09/13 23:44:53;;;;;;;11.73;8.88;;;;;17.10;100249.00;;;;13180425;22;20633;-73
2022/09/13 23:49:54;;;;;;;16.58;8.77;;;;;17.00;100256.00;;;;13128143;22;20177;-73
2022/09/13 23:54:56;;;;;;;11.60;8.13;;;;;17.00;100251.00;;;;13154885;22;20166;-74
2022/09/13 23:59:57;;;;;;;13.10;8.80;;;;;16.90;100252.00;;;;13104420;22;20229;-73
